Cheyenne, WY (82007)

3:33 AM MDT on May 24, 2015 (GMT -0600)
Rolling Hills Estates | | Change Station
CLOSE
Current Station
Personal Weather Station
Location: Cheyenne, WY
Elevation: 6214 ft
Nearby Weather Stations

Elev 6214 ft 41.14 °N, 104.90 °W | Updated 4 seconds ago

Clear
Clear
38.7 °F
Feels Like 39 °F
N
2.0
Wind Variable Wind from SW
Gusts 2.5 mph

Today
High -- | Low -- °F
--% Chance of Precip.
Yesterday
High -- | Low -- °F
Precip. -- in
5:33 AM 8:19 PM
Waxing Crescent, 37% visible
Pressure 29.89 in
Visibility 7.0 miles
Clouds Few 100 ft
Mostly Cloudy 4800 ft
Windchill 39 °F
Dew Point 38 °F
Humidity 97%
Rainfall 0.00 in
Snow Depth Not available.
UV 0 out of 12
Pollen 5.90 out of 12
Air Quality Not available.
Flu Activity Sporadic
SPECI KFEW 240916Z AUTO 32004KT 7SM FEW001 BKN048 05/05 A2989 RMK AO2 $

More Conditions Fewer Conditions

Pressure 29.89 in
Visibility 7.0 miles
Clouds Few 100 ft
Mostly Cloudy 4800 ft
Windchill 39 °F
Dew Point 38 °F
Humidity 97%
Rainfall 0.00 in
Snow Depth Not available.
UV 0 out of 12
Pollen 5.90 out of 12
Air Quality Not available.
Flu Activity Sporadic
SPECI KFEW 240916Z AUTO 32004KT 7SM FEW001 BKN048 05/05 A2989 RMK AO2 $

More Conditions Fewer Conditions

10-Day Weather Forecast

Almanac

Astronomy

May. 24, 2015 Rise Set
Actual Time
Civil Twilight
Nautical Twilight
Astronomical Twilight
Moon
Length of Visible Light
Length of Day
Tomorrow will be .
, % of the Moon is Illuminated

Today's Extremes

State Highs State Lows

Community

WunderPhotos

Upload Photos

1,823,709 photos uploaded!

WunderBlogs® & News

Nearby

Air Quality

  Air Quality AQ Index Pollutant
Not available.

Snow Depth

Station Depth Elevation

Earthquake Activity

City Distance Mag. Time & Date
Minimum magnitude displayed is 2.5.

Coastal Water Temperatures

Place Temperature

Stations

Nearby Weather Stations

Station Location Temp. Windchill Dew Point Humidity Wind Precip. Elev Updated Type